sensor_id;sensor_type;location;lat;lon;timestamp;pressure;altitude;pressure_sealevel;temperature;humidity
46756;BME280;32506;52.826;-1.192;2023-03-22T00:02:07;99270.91;;;10.87;65.55
46756;BME280;32506;52.826;-1.192;2023-03-22T00:04:33;99275.44;;;10.87;65.69
46756;BME280;32506;52.826;-1.192;2023-03-22T00:06:59;99263.97;;;10.86;65.49
46756;BME280;32506;52.826;-1.192;2023-03-22T00:09:24;99266.84;;;10.85;65.98
46756;BME280;32506;52.826;-1.192;2023-03-22T00:11:50;99268.72;;;10.84;66.10
46756;BME280;32506;52.826;-1.192;2023-03-22T00:14:18;99252.13;;;10.82;66.10
46756;BME280;32506;52.826;-1.192;2023-03-22T00:16:44;99242.50;;;10.81;65.90
46756;BME280;32506;52.826;-1.192;2023-03-22T00:19:10;99238.22;;;10.80;66.18
46756;BME280;32506;52.826;-1.192;2023-03-22T00:21:36;99225.91;;;10.79;65.98
46756;BME280;32506;52.826;-1.192;2023-03-22T00:24:01;99222.44;;;10.79;66.26
46756;BME280;32506;52.826;-1.192;2023-03-22T00:26:27;99213.59;;;10.78;66.29
46756;BME280;32506;52.826;-1.192;2023-03-22T00:28:52;99202.34;;;10.76;66.48
46756;BME280;32506;52.826;-1.192;2023-03-22T00:31:18;99199.69;;;10.76;66.62
46756;BME280;32506;52.826;-1.192;2023-03-22T00:33:44;99193.50;;;10.75;66.71
46756;BME280;32506;52.826;-1.192;2023-03-22T00:36:10;99191.91;;;10.74;66.64
46756;BME280;32506;52.826;-1.192;2023-03-22T00:38:36;99190.03;;;10.75;66.49
46756;BME280;32506;52.826;-1.192;2023-03-22T00:43:32;99176.13;;;10.73;66.43
46756;BME280;32506;52.826;-1.192;2023-03-22T00:45:58;99171.84;;;10.72;66.87
46756;BME280;32506;52.826;-1.192;2023-03-22T00:48:23;99169.97;;;10.72;67.01
46756;BME280;32506;52.826;-1.192;2023-03-22T00:50:48;99163.81;;;10.72;67.09
46756;BME280;32506;52.826;-1.192;2023-03-22T00:53:14;99165.66;;;10.71;67.01
46756;BME280;32506;52.826;-1.192;2023-03-22T00:55:39;99151.50;;;10.71;67.14
46756;BME280;32506;52.826;-1.192;2023-03-22T00:58:05;99138.16;;;10.71;67.14
46756;BME280;32506;52.826;-1.192;2023-03-22T01:00:30;99140.81;;;10.71;67.21
46756;BME280;32506;52.826;-1.192;2023-03-22T01:02:58;99136.53;;;10.70;67.55
46756;BME280;32506;52.826;-1.192;2023-03-22T01:05:24;99150.13;;;10.68;67.30
46756;BME280;32506;52.826;-1.192;2023-03-22T01:07:50;99134.91;;;10.69;67.30
46756;BME280;32506;52.826;-1.192;2023-03-22T01:10:16;99133.06;;;10.69;67.11
46756;BME280;32506;52.826;-1.192;2023-03-22T01:12:42;99129.56;;;10.69;67.13
46756;BME280;32506;52.826;-1.192;2023-03-22T01:15:08;99121.53;;;10.69;67.26
46756;BME280;32506;52.826;-1.192;2023-03-22T01:17:33;99119.94;;;10.68;67.49
46756;BME280;32506;52.826;-1.192;2023-03-22T01:19:59;99112.72;;;10.68;67.63
46756;BME280;32506;52.826;-1.192;2023-03-22T01:22:25;99101.25;;;10.68;67.25
46756;BME280;32506;52.826;-1.192;2023-03-22T01:24:50;99102.84;;;10.69;67.37
46756;BME280;32506;52.826;-1.192;2023-03-22T01:27:15;99096.44;;;10.70;67.63
46756;BME280;32506;52.826;-1.192;2023-03-22T01:29:41;99084.13;;;10.69;67.58
46756;BME280;32506;52.826;-1.192;2023-03-22T01:32:07;99062.75;;;10.69;67.65
46756;BME280;32506;52.826;-1.192;2023-03-22T01:34:32;99064.38;;;10.70;67.56
46756;BME280;32506;52.826;-1.192;2023-03-22T01:36:57;99060.09;;;10.69;67.57
46756;BME280;32506;52.826;-1.192;2023-03-22T01:39:23;99058.25;;;10.69;67.58
46756;BME280;32506;52.826;-1.192;2023-03-22T01:41:48;99068.69;;;10.71;67.64
46756;BME280;32506;52.826;-1.192;2023-03-22T01:44:19;99054.53;;;10.70;67.71
46756;BME280;32506;52.826;-1.192;2023-03-22T01:46:48;99044.63;;;10.71;67.72
46756;BME280;32506;52.826;-1.192;2023-03-22T01:49:27;99047.31;;;10.71;67.40
46756;BME280;32506;52.826;-1.192;2023-03-22T01:51:59;99030.47;;;10.70;67.48
46756;BME280;32506;52.826;-1.192;2023-03-22T01:54:41;99042.53;;;10.73;67.56
46756;BME280;32506;52.826;-1.192;2023-03-22T01:57:08;99042.53;;;10.73;67.56
46756;BME280;32506;52.826;-1.192;2023-03-22T01:59:34;99046.25;;;10.72;67.80
46756;BME280;32506;52.826;-1.192;2023-03-22T02:02:00;99031.84;;;10.73;67.74
46756;BME280;32506;52.826;-1.192;2023-03-22T02:04:31;99026.50;;;10.73;67.73
46756;BME280;32506;52.826;-1.192;2023-03-22T02:07:01;99028.09;;;10.74;67.74
46756;BME280;32506;52.826;-1.192;2023-03-22T02:09:35;99014.72;;;10.74;67.87
46756;BME280;32506;52.826;-1.192;2023-03-22T02:13:08;99001.09;;;10.75;67.66
46756;BME280;32506;52.826;-1.192;2023-03-22T02:15:20;98996.59;;;10.76;67.74
46756;BME280;32506;52.826;-1.192;2023-03-22T02:29:22;98985.13;;;10.81;68.03
46756;BME280;32506;52.826;-1.192;2023-03-22T02:40:16;98967.25;;;10.81;67.87
46756;BME280;32506;52.826;-1.192;2023-03-22T02:43:14;98963.25;;;10.84;68.09
46756;BME280;32506;52.826;-1.192;2023-03-22T02:45:53;98973.13;;;10.83;68.07
46756;BME280;32506;52.826;-1.192;2023-03-22T02:48:27;98956.03;;;10.84;68.07
46756;BME280;32506;52.826;-1.192;2023-03-22T02:51:04;98966.72;;;10.84;67.89
46756;BME280;32506;52.826;-1.192;2023-03-22T02:56:15;98949.38;;;10.87;67.90
46756;BME280;32506;52.826;-1.192;2023-03-22T02:58:45;98952.84;;;10.87;68.14
46756;BME280;32506;52.826;-1.192;2023-03-22T03:01:25;98936.81;;;10.87;68.21
46756;BME280;32506;52.826;-1.192;2023-03-22T03:03:56;98956.34;;;10.88;68.07
46756;BME280;32506;52.826;-1.192;2023-03-22T03:06:26;98942.72;;;10.89;68.19
46756;BME280;32506;52.826;-1.192;2023-03-22T03:08:55;98932.81;;;10.90;68.14
46756;BME280;32506;52.826;-1.192;2023-03-22T03:11:22;98935.50;;;10.90;67.96
46756;BME280;32506;52.826;-1.192;2023-03-22T03:13:49;98939.00;;;10.90;68.25
46756;BME280;32506;52.826;-1.192;2023-03-22T03:16:19;98946.75;;;10.92;68.28
46756;BME280;32506;52.826;-1.192;2023-03-22T03:19:10;98931.25;;;10.94;68.56
46756;BME280;32506;52.826;-1.192;2023-03-22T03:24:31;98927.00;;;10.93;68.19
46756;BME280;32506;52.826;-1.192;2023-03-22T03:27:05;98933.13;;;10.94;68.44
46756;BME280;32506;52.826;-1.192;2023-03-22T03:29:41;98939.28;;;10.94;68.59
46756;BME280;32506;52.826;-1.192;2023-03-22T03:35:13;98917.63;;;10.96;69.04
46756;BME280;32506;52.826;-1.192;2023-03-22T03:37:50;98910.69;;;10.95;69.06
46756;BME280;32506;52.826;-1.192;2023-03-22T03:40:29;98907.75;;;10.96;69.01
46756;BME280;32506;52.826;-1.192;2023-03-22T03:42:59;98894.13;;;10.98;68.96
46756;BME280;32506;52.826;-1.192;2023-03-22T03:45:26;98893.34;;;10.97;69.03
46756;BME280;32506;52.826;-1.192;2023-03-22T03:47:56;98892.50;;;10.97;69.43
46756;BME280;32506;52.826;-1.192;2023-03-22T03:50:24;98870.06;;;10.98;69.48
46756;BME280;32506;52.826;-1.192;2023-03-22T03:52:51;98869.28;;;10.97;69.33
46756;BME280;32506;52.826;-1.192;2023-03-22T03:55:17;98854.84;;;10.98;69.61
46756;BME280;32506;52.826;-1.192;2023-03-22T03:57:43;98852.41;;;10.97;69.48
46756;BME280;32506;52.826;-1.192;2023-03-22T04:00:09;98847.63;;;10.99;69.76
46756;BME280;32506;52.826;-1.192;2023-03-22T04:02:35;98828.94;;;10.99;69.39
46756;BME280;32506;52.826;-1.192;2023-03-22T04:05:00;98829.72;;;10.99;69.89
46756;BME280;32506;52.826;-1.192;2023-03-22T04:07:26;98838.78;;;10.98;69.81
46756;BME280;32506;52.826;-1.192;2023-03-22T04:09:51;98847.38;;;11.00;69.49
46756;BME280;32506;52.826;-1.192;2023-03-22T04:12:17;98843.09;;;10.99;69.45
46756;BME280;32506;52.826;-1.192;2023-03-22T04:14:42;98859.94;;;11.00;69.66
46756;BME280;32506;52.826;-1.192;2023-03-22T04:17:09;98856.19;;;11.01;69.88
46756;BME280;32506;52.826;-1.192;2023-03-22T04:19:34;98857.00;;;11.01;69.77
46756;BME280;32506;52.826;-1.192;2023-03-22T04:22:00;98844.44;;;11.02;69.53
46756;BME280;32506;52.826;-1.192;2023-03-22T04:24:25;98844.44;;;11.02;69.84
46756;BME280;32506;52.826;-1.192;2023-03-22T04:26:51;98850.56;;;11.02;69.36
46756;BME280;32506;52.826;-1.192;2023-03-22T04:29:17;98843.38;;;11.03;69.78
46756;BME280;32506;52.826;-1.192;2023-03-22T04:31:42;98853.00;;;11.04;69.74
46756;BME280;32506;52.826;-1.192;2023-03-22T04:34:07;98863.72;;;11.04;69.99
46756;BME280;32506;52.826;-1.192;2023-03-22T04:36:35;98860.22;;;11.03;69.97
46756;BME280;32506;52.826;-1.192;2023-03-22T04:39:08;98859.94;;;11.05;69.44
46756;BME280;32506;52.826;-1.192;2023-03-22T04:41:35;98863.44;;;11.05;69.43
46756;BME280;32506;52.826;-1.192;2023-03-22T04:44:03;98862.63;;;11.05;69.37
46756;BME280;32506;52.826;-1.192;2023-03-22T04:46:29;98868.53;;;11.07;69.25
46756;BME280;32506;52.826;-1.192;2023-03-22T04:48:55;98863.19;;;11.07;69.28
46756;BME280;32506;52.826;-1.192;2023-03-22T04:51:21;98867.72;;;11.06;69.51
46756;BME280;32506;52.826;-1.192;2023-03-22T04:53:46;98860.50;;;11.07;69.38
46756;BME280;32506;52.826;-1.192;2023-03-22T04:56:13;98873.88;;;11.07;69.40
46756;BME280;32506;52.826;-1.192;2023-03-22T04:58:40;98873.63;;;11.08;69.20
46756;BME280;32506;52.826;-1.192;2023-03-22T05:01:08;98885.09;;;11.09;69.48
46756;BME280;32506;52.826;-1.192;2023-03-22T05:03:34;98882.44;;;11.09;69.33
46756;BME280;32506;52.826;-1.192;2023-03-22T05:06:01;98884.06;;;11.10;69.19
46756;BME280;32506;52.826;-1.192;2023-03-22T05:08:28;98875.22;;;11.10;69.45
46756;BME280;32506;52.826;-1.192;2023-03-22T05:10:56;98881.38;;;11.10;69.01
46756;BME280;32506;52.826;-1.192;2023-03-22T05:13:25;98881.13;;;11.12;69.60
46756;BME280;32506;52.826;-1.192;2023-03-22T05:15:52;98888.88;;;11.13;69.46
46756;BME280;32506;52.826;-1.192;2023-03-22T05:18:19;98884.34;;;11.14;69.47
46756;BME280;32506;52.826;-1.192;2023-03-22T05:20:46;98870.97;;;11.14;69.50
46756;BME280;32506;52.826;-1.192;2023-03-22T05:23:13;98879.78;;;11.14;69.34
46756;BME280;32506;52.826;-1.192;2023-03-22T05:25:39;98884.09;;;11.15;69.46
46756;BME280;32506;52.826;-1.192;2023-03-22T05:28:09;98892.91;;;11.16;69.06
46756;BME280;32506;52.826;-1.192;2023-03-22T05:30:34;98900.69;;;11.17;69.29
46756;BME280;32506;52.826;-1.192;2023-03-22T05:33:02;98887.56;;;11.16;69.10
46756;BME280;32506;52.826;-1.192;2023-03-22T05:35:32;98893.72;;;11.16;69.09
46756;BME280;32506;52.826;-1.192;2023-03-22T05:37:59;98893.72;;;11.16;69.48
46756;BME280;32506;52.826;-1.192;2023-03-22T05:40:25;98912.97;;;11.18;69.44
46756;BME280;32506;52.826;-1.192;2023-03-22T05:42:51;98915.66;;;11.18;69.38
46756;BME280;32506;52.826;-1.192;2023-03-22T05:45:18;98919.94;;;11.19;69.50
46756;BME280;32506;52.826;-1.192;2023-03-22T05:47:44;98902.00;;;11.20;69.25
46756;BME280;32506;52.826;-1.192;2023-03-22T05:50:11;98911.91;;;11.19;69.62
46756;BME280;32506;52.826;-1.192;2023-03-22T05:52:37;98914.34;;;11.21;69.57
46756;BME280;32506;52.826;-1.192;2023-03-22T05:55:03;98908.19;;;11.20;69.14
46756;BME280;32506;52.826;-1.192;2023-03-22T05:57:29;98921.31;;;11.22;69.31
46756;BME280;32506;52.826;-1.192;2023-03-22T05:59:56;98925.03;;;11.21;69.42
46756;BME280;32506;52.826;-1.192;2023-03-22T06:02:22;98933.06;;;11.21;69.43
46756;BME280;32506;52.826;-1.192;2023-03-22T06:04:48;98923.19;;;11.21;69.49
46756;BME280;32506;52.826;-1.192;2023-03-22T06:07:14;98921.56;;;11.20;69.33
46756;BME280;32506;52.826;-1.192;2023-03-22T06:09:40;98933.06;;;11.21;69.37
46756;BME280;32506;52.826;-1.192;2023-03-22T06:12:06;98922.34;;;11.21;69.40
46756;BME280;32506;52.826;-1.192;2023-03-22T06:14:31;98935.72;;;11.21;68.97
46756;BME280;32506;52.826;-1.192;2023-03-22T06:16:56;98938.41;;;11.21;69.50
46756;BME280;32506;52.826;-1.192;2023-03-22T06:19:22;98944.81;;;11.20;69.14
46756;BME280;32506;52.826;-1.192;2023-03-22T06:21:50;98960.63;;;11.21;69.37
46756;BME280;32506;52.826;-1.192;2023-03-22T06:24:17;98964.34;;;11.20;69.13
46756;BME280;32506;52.826;-1.192;2023-03-22T06:26:42;98971.31;;;11.21;69.19
46756;BME280;32506;52.826;-1.192;2023-03-22T06:29:08;98965.97;;;11.21;69.03
46756;BME280;32506;52.826;-1.192;2023-03-22T06:31:33;98962.47;;;11.21;69.04
46756;BME280;32506;52.826;-1.192;2023-03-22T06:33:59;98983.84;;;11.21;68.96
46756;BME280;32506;52.826;-1.192;2023-03-22T06:36:25;98985.47;;;11.22;69.33
46756;BME280;32506;52.826;-1.192;2023-03-22T06:38:50;98984.69;;;11.21;69.30
46756;BME280;32506;52.826;-1.192;2023-03-22T06:41:16;98999.91;;;11.21;68.91
46756;BME280;32506;52.826;-1.192;2023-03-22T06:43:41;98989.22;;;11.21;68.86
46756;BME280;32506;52.826;-1.192;2023-03-22T06:46:07;99005.25;;;11.21;68.94
46756;BME280;32506;52.826;-1.192;2023-03-22T06:48:32;99006.31;;;11.20;69.14
46756;BME280;32506;52.826;-1.192;2023-03-22T06:50:58;99015.94;;;11.21;68.98
46756;BME280;32506;52.826;-1.192;2023-03-22T06:53:24;99013.53;;;11.19;68.84
46756;BME280;32506;52.826;-1.192;2023-03-22T06:55:49;99015.16;;;11.20;68.69
46756;BME280;32506;52.826;-1.192;2023-03-22T06:58:15;99025.03;;;11.20;68.55
46756;BME280;32506;52.826;-1.192;2023-03-22T07:00:41;99016.22;;;11.19;68.53
46756;BME280;32506;52.826;-1.192;2023-03-22T07:03:06;99033.03;;;11.20;68.79
46756;BME280;32506;52.826;-1.192;2023-03-22T07:05:32;99030.38;;;11.20;68.21
46756;BME280;32506;52.826;-1.192;2023-03-22T07:07:57;99026.91;;;11.19;68.22
46756;BME280;32506;52.826;-1.192;2023-03-22T07:10:23;99036.81;;;11.19;68.42
46756;BME280;32506;52.826;-1.192;2023-03-22T07:12:48;99038.66;;;11.18;68.21
46756;BME280;32506;52.826;-1.192;2023-03-22T07:15:13;99055.78;;;11.17;67.94
46756;BME280;32506;52.826;-1.192;2023-03-22T07:17:41;99059.50;;;11.16;67.70
46756;BME280;32506;52.826;-1.192;2023-03-22T07:20:07;99065.91;;;11.15;67.70
46756;BME280;32506;52.826;-1.192;2023-03-22T07:22:33;99063.25;;;11.15;67.67
46756;BME280;32506;52.826;-1.192;2023-03-22T07:24:58;99062.66;;;11.13;67.57
46756;BME280;32506;52.826;-1.192;2023-03-22T07:27:24;99077.91;;;11.13;67.23
46756;BME280;32506;52.826;-1.192;2023-03-22T07:29:50;99087.00;;;11.12;67.38
46756;BME280;32506;52.826;-1.192;2023-03-22T07:32:16;99078.44;;;11.10;67.08
46756;BME280;32506;52.826;-1.192;2023-03-22T07:34:41;99097.94;;;11.10;67.17
46756;BME280;32506;52.826;-1.192;2023-03-22T07:37:07;99108.91;;;11.08;66.84
46756;BME280;32506;52.826;-1.192;2023-03-22T07:39:33;99104.34;;;11.09;67.10
46756;BME280;32506;52.826;-1.192;2023-03-22T07:41:58;99098.47;;;11.07;67.00
46756;BME280;32506;52.826;-1.192;2023-03-22T07:44:25;99111.81;;;11.07;66.98
46756;BME280;32506;52.826;-1.192;2023-03-22T07:46:50;99108.09;;;11.08;66.88
46756;BME280;32506;52.826;-1.192;2023-03-22T07:49:17;99101.13;;;11.07;66.76
46756;BME280;32506;52.826;-1.192;2023-03-22T07:51:43;99101.13;;;11.07;66.80
46756;BME280;32506;52.826;-1.192;2023-03-22T07:54:08;99100.31;;;11.06;66.87
46756;BME280;32506;52.826;-1.192;2023-03-22T07:56:34;99097.63;;;11.06;66.39
46756;BME280;32506;52.826;-1.192;2023-03-22T07:59:00;99098.47;;;11.07;66.71
46756;BME280;32506;52.826;-1.192;2023-03-22T08:01:26;99099.25;;;11.07;66.60
46756;BME280;32506;52.826;-1.192;2023-03-22T08:03:51;99104.84;;;11.06;66.57
46756;BME280;32506;52.826;-1.192;2023-03-22T08:06:18;99101.38;;;11.05;66.53
46756;BME280;32506;52.826;-1.192;2023-03-22T08:08:46;99097.09;;;11.04;66.36
46756;BME280;32506;52.826;-1.192;2023-03-22T08:11:11;99107.00;;;11.04;66.17
46756;BME280;32506;52.826;-1.192;2023-03-22T08:13:38;99115.00;;;11.04;66.17
46756;BME280;32506;52.826;-1.192;2023-03-22T08:16:04;99117.91;;;11.02;65.99
46756;BME280;32506;52.826;-1.192;2023-03-22T08:18:30;99121.66;;;11.01;65.74
46756;BME280;32506;52.826;-1.192;2023-03-22T08:20:57;99119.00;;;11.01;65.64
46756;BME280;32506;52.826;-1.192;2023-03-22T08:23:24;99113.91;;;11.00;65.79
46756;BME280;32506;52.826;-1.192;2023-03-22T08:25:50;99123.75;;;10.99;65.92
46756;BME280;32506;52.826;-1.192;2023-03-22T08:28:16;99113.06;;;10.99;65.99
46756;BME280;32506;52.826;-1.192;2023-03-22T08:30:47;99114.94;;;10.99;65.68
46756;BME280;32506;52.826;-1.192;2023-03-22T08:33:13;99121.91;;;11.00;65.80
46756;BME280;32506;52.826;-1.192;2023-03-22T08:35:39;99139.28;;;11.02;65.94
46756;BME280;32506;52.826;-1.192;2023-03-22T08:38:04;99126.25;;;11.06;65.74
46756;BME280;32506;52.826;-1.192;2023-03-22T08:40:30;99120.38;;;11.09;65.98
46756;BME280;32506;52.826;-1.192;2023-03-22T08:42:56;99122.06;;;11.15;66.46
46756;BME280;32506;52.826;-1.192;2023-03-22T08:45:22;99122.13;;;11.20;66.72
46756;BME280;32506;52.826;-1.192;2023-03-22T08:47:48;99124.59;;;11.27;66.89
46756;BME280;32506;52.826;-1.192;2023-03-22T08:50:13;99123.34;;;11.35;67.01
46756;BME280;32506;52.826;-1.192;2023-03-22T08:52:39;99123.91;;;11.42;67.13
46756;BME280;32506;52.826;-1.192;2023-03-22T08:55:05;99132.31;;;11.51;67.20
46756;BME280;32506;52.826;-1.192;2023-03-22T08:57:35;99126.50;;;11.59;67.20
46756;BME280;32506;52.826;-1.192;2023-03-22T09:00:01;99117.16;;;11.67;67.02
46756;BME280;32506;52.826;-1.192;2023-03-22T09:02:27;99131.69;;;11.76;67.18
46756;BME280;32506;52.826;-1.192;2023-03-22T09:04:52;99130.97;;;11.86;67.24
46756;BME280;32506;52.826;-1.192;2023-03-22T09:07:18;99131.88;;;11.97;67.33
46756;BME280;32506;52.826;-1.192;2023-03-22T09:09:48;99124.16;;;12.05;67.98
46756;BME280;32506;52.826;-1.192;2023-03-22T09:12:14;99133.91;;;12.17;67.59
46756;BME280;32506;52.826;-1.192;2023-03-22T09:14:40;99123.78;;;12.29;68.02
46756;BME280;32506;52.826;-1.192;2023-03-22T09:17:05;99141.50;;;12.40;68.23
46756;BME280;32506;52.826;-1.192;2023-03-22T09:19:30;99134.06;;;12.53;68.32
46756;BME280;32506;52.826;-1.192;2023-03-22T09:21:56;99136.53;;;12.65;68.75
46756;BME280;32506;52.826;-1.192;2023-03-22T09:24:22;99131.78;;;12.77;69.00
46756;BME280;32506;52.826;-1.192;2023-03-22T09:26:48;99143.59;;;12.91;69.36
46756;BME280;32506;52.826;-1.192;2023-03-22T09:29:13;99143.38;;;13.03;69.18
46756;BME280;32506;52.826;-1.192;2023-03-22T09:31:39;99144.50;;;13.18;69.54
46756;BME280;32506;52.826;-1.192;2023-03-22T09:34:05;99142.38;;;13.30;69.34
46756;BME280;32506;52.826;-1.192;2023-03-22T09:36:31;99140.81;;;13.45;69.49
46756;BME280;32506;52.826;-1.192;2023-03-22T09:38:57;99133.84;;;13.59;69.20
46756;BME280;32506;52.826;-1.192;2023-03-22T09:41:37;99133.31;;;13.72;69.35
46756;BME280;32506;52.826;-1.192;2023-03-22T09:44:08;99127.66;;;13.89;69.46
46756;BME280;32506;52.826;-1.192;2023-03-22T09:46:40;99128.16;;;14.02;68.92
46756;BME280;32506;52.826;-1.192;2023-03-22T09:49:15;99130.03;;;14.17;68.57
46756;BME280;32506;52.826;-1.192;2023-03-22T09:52:11;99129.47;;;14.30;67.79
46756;BME280;32506;52.826;-1.192;2023-03-22T09:54:39;99123.53;;;14.38;67.65
46756;BME280;32506;52.826;-1.192;2023-03-22T10:03:04;99114.59;;;14.64;66.80
46756;BME280;32506;52.826;-1.192;2023-03-22T10:10:36;99111.53;;;14.86;65.43
46756;BME280;32506;52.826;-1.192;2023-03-22T10:13:26;99116.06;;;14.96;65.56
46756;BME280;32506;52.826;-1.192;2023-03-22T10:15:57;99131.34;;;15.05;65.47
46756;BME280;32506;52.826;-1.192;2023-03-22T10:18:33;99136.66;;;15.16;65.05
46756;BME280;32506;52.826;-1.192;2023-03-22T10:21:08;99126.63;;;15.26;65.05
46756;BME280;32506;52.826;-1.192;2023-03-22T10:24:06;99124.94;;;15.41;65.02
46756;BME280;32506;52.826;-1.192;2023-03-22T10:26:39;99129.97;;;15.53;65.36
46756;BME280;32506;52.826;-1.192;2023-03-22T10:29:28;99131.16;;;15.71;65.93
46756;BME280;32506;52.826;-1.192;2023-03-22T10:32:09;99130.78;;;15.88;65.72
46756;BME280;32506;52.826;-1.192;2023-03-22T10:34:37;99134.13;;;16.04;65.82
46756;BME280;32506;52.826;-1.192;2023-03-22T10:37:04;99124.34;;;16.13;52.40
46756;BME280;32506;52.826;-1.192;2023-03-22T10:39:34;99125.13;;;16.14;52.85
46756;BME280;32506;52.826;-1.192;2023-03-22T10:42:03;99138.44;;;16.05;50.22
46756;BME280;32506;52.826;-1.192;2023-03-22T10:44:32;99137.75;;;15.94;46.95
46756;BME280;32506;52.826;-1.192;2023-03-22T10:47:02;99146.47;;;15.81;46.93
46756;BME280;32506;52.826;-1.192;2023-03-22T10:49:35;99147.13;;;15.62;44.41
46756;BME280;32506;52.826;-1.192;2023-03-22T10:52:08;99146.69;;;15.50;46.93
46756;BME280;32506;52.826;-1.192;2023-03-22T10:54:41;99146.75;;;15.39;47.58
46756;BME280;32506;52.826;-1.192;2023-03-22T10:57:06;99154.06;;;15.34;48.76
46756;BME280;32506;52.826;-1.192;2023-03-22T10:59:48;99145.72;;;15.30;46.31
46756;BME280;32506;52.826;-1.192;2023-03-22T11:02:19;99155.72;;;15.24;45.87
46756;BME280;32506;52.826;-1.192;2023-03-22T11:04:51;99142.81;;;15.21;44.56
46756;BME280;32506;52.826;-1.192;2023-03-22T11:12:34;99145.84;;;15.09;45.61
46756;BME280;32506;52.826;-1.192;2023-03-22T11:15:01;99130.50;;;15.10;44.67
46756;BME280;32506;52.826;-1.192;2023-03-22T11:17:26;99145.84;;;15.09;42.72
46756;BME280;32506;52.826;-1.192;2023-03-22T11:20:00;99143.97;;;15.10;43.25
46756;BME280;32506;52.826;-1.192;2023-03-22T11:22:40;99143.97;;;15.10;44.85
46756;BME280;32506;52.826;-1.192;2023-03-22T11:25:20;99139.66;;;15.09;43.88
46756;BME280;32506;52.826;-1.192;2023-03-22T11:27:56;99153.66;;;15.11;46.16
46756;BME280;32506;52.826;-1.192;2023-03-22T11:30:25;99151.19;;;15.15;46.09
46756;BME280;32506;52.826;-1.192;2023-03-22T11:33:19;99142.00;;;15.21;44.22
46756;BME280;32506;52.826;-1.192;2023-03-22T11:35:47;99151.69;;;15.22;43.64
46756;BME280;32506;52.826;-1.192;2023-03-22T11:38:38;99132.00;;;15.26;45.11
46756;BME280;32506;52.826;-1.192;2023-03-22T11:41:19;99134.41;;;15.28;43.93
46756;BME280;32506;52.826;-1.192;2023-03-22T11:43:46;99151.09;;;15.30;45.06
46756;BME280;32506;52.826;-1.192;2023-03-22T11:46:15;99137.94;;;15.29;43.90
46756;BME280;32506;52.826;-1.192;2023-03-22T11:48:45;99148.41;;;15.30;44.55
46756;BME280;32506;52.826;-1.192;2023-03-22T11:51:13;99161.09;;;15.30;44.35
46756;BME280;32506;52.826;-1.192;2023-03-22T11:53:42;99142.25;;;15.30;44.92
46756;BME280;32506;52.826;-1.192;2023-03-22T11:56:10;99131.19;;;15.31;44.90
46756;BME280;32506;52.826;-1.192;2023-03-22T12:01:02;99136.00;;;15.34;44.78
46756;BME280;32506;52.826;-1.192;2023-03-22T12:03:34;99136.25;;;15.38;44.08
46756;BME280;32506;52.826;-1.192;2023-03-22T12:06:03;99117.91;;;15.45;45.19
46756;BME280;32506;52.826;-1.192;2023-03-22T12:08:46;99122.38;;;15.55;45.46
46756;BME280;32506;52.826;-1.192;2023-03-22T12:11:18;99112.91;;;15.63;43.47
46756;BME280;32506;52.826;-1.192;2023-03-22T12:14:14;99117.19;;;15.69;43.85
46756;BME280;32506;52.826;-1.192;2023-03-22T12:16:53;99120.34;;;15.76;43.44
46756;BME280;32506;52.826;-1.192;2023-03-22T12:22:12;99101.53;;;15.71;42.38
46756;BME280;32506;52.826;-1.192;2023-03-22T12:24:39;99104.22;;;15.71;42.58
46756;BME280;32506;52.826;-1.192;2023-03-22T12:30:04;99097.00;;;15.66;42.72
46756;BME280;32506;52.826;-1.192;2023-03-22T12:32:51;99101.63;;;15.60;43.61
46756;BME280;32506;52.826;-1.192;2023-03-22T12:35:25;99094.91;;;15.58;44.52
46756;BME280;32506;52.826;-1.192;2023-03-22T12:37:54;99099.19;;;15.59;45.29
46756;BME280;32506;52.826;-1.192;2023-03-22T12:40:31;99093.47;;;15.66;45.27
46756;BME280;32506;52.826;-1.192;2023-03-22T12:43:33;99082.38;;;15.72;44.45
46756;BME280;32506;52.826;-1.192;2023-03-22T12:46:04;99075.63;;;15.75;43.39
46756;BME280;32506;52.826;-1.192;2023-03-22T12:51:31;99072.59;;;15.87;42.28
46756;BME280;32506;52.826;-1.192;2023-03-22T12:53:58;99056.66;;;15.90;41.83
46756;BME280;32506;52.826;-1.192;2023-03-22T12:56:38;99057.41;;;15.96;41.72
46756;BME280;32506;52.826;-1.192;2023-03-22T12:59:06;99047.97;;;15.99;40.79
46756;BME280;32506;52.826;-1.192;2023-03-22T13:01:38;99041.50;;;16.00;42.61
46756;BME280;32506;52.826;-1.192;2023-03-22T13:19:59;99102.31;;;16.30;42.94
46756;BME280;32506;52.826;-1.192;2023-03-22T13:23:23;99063.41;;;16.17;41.84
46756;BME280;32506;52.826;-1.192;2023-03-22T13:28:22;99073.97;;;16.08;42.37
46756;BME280;32506;52.826;-1.192;2023-03-22T13:30:55;99070.25;;;16.04;42.43
46756;BME280;32506;52.826;-1.192;2023-03-22T13:33:26;99051.94;;;16.06;43.32
46756;BME280;32506;52.826;-1.192;2023-03-22T13:36:04;99051.94;;;16.06;42.29
46756;BME280;32506;52.826;-1.192;2023-03-22T13:38:37;99048.69;;;16.04;43.57
46756;BME280;32506;52.826;-1.192;2023-03-22T13:41:07;99057.88;;;16.03;44.01
46756;BME280;32506;52.826;-1.192;2023-03-22T13:43:48;99087.25;;;16.05;44.37
46756;BME280;32506;52.826;-1.192;2023-03-22T13:56:51;99039.28;;;16.02;43.42
46756;BME280;32506;52.826;-1.192;2023-03-22T14:04:57;99031.25;;;15.97;43.54
46756;BME280;32506;52.826;-1.192;2023-03-22T14:07:48;99037.13;;;16.04;43.79
46756;BME280;32506;52.826;-1.192;2023-03-22T14:10:35;99012.28;;;16.07;42.73
46756;BME280;32506;52.826;-1.192;2023-03-22T14:13:24;99010.13;;;16.09;43.52
46756;BME280;32506;52.826;-1.192;2023-03-22T14:15:55;99008.22;;;16.09;43.70
46756;BME280;32506;52.826;-1.192;2023-03-22T14:18:27;99007.19;;;16.05;42.35
46756;BME280;32506;52.826;-1.192;2023-03-22T14:20:54;99005.03;;;16.07;42.94
46756;BME280;32506;52.826;-1.192;2023-03-22T14:23:43;99010.69;;;16.06;42.24
46756;BME280;32506;52.826;-1.192;2023-03-22T14:26:17;98998.09;;;16.01;42.76
46756;BME280;32506;52.826;-1.192;2023-03-22T14:28:43;99020.47;;;15.97;42.00
46756;BME280;32506;52.826;-1.192;2023-03-22T14:31:24;98996.03;;;15.93;42.20
46756;BME280;32506;52.826;-1.192;2023-03-22T14:33:51;98988.50;;;15.90;42.67
46756;BME280;32506;52.826;-1.192;2023-03-22T14:36:19;98996.59;;;15.90;42.88